sensor_id;sensor_type;location;lat;lon;timestamp;P1;durP1;ratioP1;P2;durP2;ratioP2
4186;SDS011;2107;52.306;10.484;2023-07-20T00:02:23;0.30;;;0.30;;
4186;SDS011;2107;52.306;10.484;2023-07-20T00:04:50;0.20;;;0.20;;
4186;SDS011;2107;52.306;10.484;2023-07-20T00:07:18;0.20;;;0.20;;
4186;SDS011;2107;52.306;10.484;2023-07-20T00:09:45;0.20;;;0.20;;
4186;SDS011;2107;52.306;10.484;2023-07-20T00:12:13;0.20;;;0.20;;
4186;SDS011;2107;52.306;10.484;2023-07-20T00:14:40;0.10;;;0.10;;
4186;SDS011;2107;52.306;10.484;2023-07-20T00:17:07;0.20;;;0.20;;
4186;SDS011;2107;52.306;10.484;2023-07-20T00:19:33;0.10;;;0.10;;
4186;SDS011;2107;52.306;10.484;2023-07-20T00:22:00;0.10;;;0.10;;
4186;SDS011;2107;52.306;10.484;2023-07-20T00:24:30;0.10;;;0.10;;
4186;SDS011;2107;52.306;10.484;2023-07-20T00:26:58;0.10;;;0.10;;
4186;SDS011;2107;52.306;10.484;2023-07-20T00:29:26;0.10;;;0.10;;
4186;SDS011;2107;52.306;10.484;2023-07-20T00:31:52;0.10;;;0.10;;
4186;SDS011;2107;52.306;10.484;2023-07-20T00:34:19;0.10;;;0.10;;
4186;SDS011;2107;52.306;10.484;2023-07-20T00:36:46;0.10;;;0.10;;
4186;SDS011;2107;52.306;10.484;2023-07-20T00:39:14;0.10;;;0.10;;
4186;SDS011;2107;52.306;10.484;2023-07-20T00:41:42;0.10;;;0.10;;
4186;SDS011;2107;52.306;10.484;2023-07-20T00:44:09;0.10;;;0.10;;
4186;SDS011;2107;52.306;10.484;2023-07-20T00:46:36;0.10;;;0.10;;
4186;SDS011;2107;52.306;10.484;2023-07-20T00:49:03;0.10;;;0.10;;
4186;SDS011;2107;52.306;10.484;2023-07-20T00:51:31;0.00;;;0.00;;
4186;SDS011;2107;52.306;10.484;2023-07-20T00:53:58;0.10;;;0.10;;
4186;SDS011;2107;52.306;10.484;2023-07-20T00:56:25;0.00;;;0.00;;
4186;SDS011;2107;52.306;10.484;2023-07-20T00:58:53;0.00;;;0.00;;
4186;SDS011;2107;52.306;10.484;2023-07-20T01:01:21;0.10;;;0.10;;
4186;SDS011;2107;52.306;10.484;2023-07-20T01:03:48;0.00;;;0.00;;
4186;SDS011;2107;52.306;10.484;2023-07-20T01:06:18;0.00;;;0.00;;
4186;SDS011;2107;52.306;10.484;2023-07-20T01:11:42;0.00;;;0.00;;
4186;SDS011;2107;52.306;10.484;2023-07-20T01:14:16;0.00;;;0.00;;
4186;SDS011;2107;52.306;10.484;2023-07-20T01:16:43;0.00;;;0.00;;
4186;SDS011;2107;52.306;10.484;2023-07-20T01:19:12;0.00;;;0.00;;
4186;SDS011;2107;52.306;10.484;2023-07-20T01:21:41;0.00;;;0.00;;
4186;SDS011;2107;52.306;10.484;2023-07-20T01:27:33;0.00;;;0.00;;
4186;SDS011;2107;52.306;10.484;2023-07-20T01:30:20;0.00;;;0.00;;
4186;SDS011;2107;52.306;10.484;2023-07-20T01:33:05;0.00;;;0.00;;
4186;SDS011;2107;52.306;10.484;2023-07-20T01:35:33;0.00;;;0.00;;
4186;SDS011;2107;52.306;10.484;2023-07-20T01:38:02;0.00;;;0.00;;
4186;SDS011;2107;52.306;10.484;2023-07-20T01:40:30;0.00;;;0.00;;
4186;SDS011;2107;52.306;10.484;2023-07-20T01:42:58;0.00;;;0.00;;
4186;SDS011;2107;52.306;10.484;2023-07-20T01:45:24;0.00;;;0.00;;
4186;SDS011;2107;52.306;10.484;2023-07-20T01:47:52;0.00;;;0.00;;
4186;SDS011;2107;52.306;10.484;2023-07-20T01:50:20;0.00;;;0.00;;
4186;SDS011;2107;52.306;10.484;2023-07-20T01:52:47;0.00;;;0.00;;
4186;SDS011;2107;52.306;10.484;2023-07-20T01:55:14;0.00;;;0.00;;
4186;SDS011;2107;52.306;10.484;2023-07-20T01:57:41;0.00;;;0.00;;
4186;SDS011;2107;52.306;10.484;2023-07-20T02:00:08;0.00;;;0.00;;
4186;SDS011;2107;52.306;10.484;2023-07-20T02:02:36;0.00;;;0.00;;
4186;SDS011;2107;52.306;10.484;2023-07-20T02:05:03;0.00;;;0.00;;
4186;SDS011;2107;52.306;10.484;2023-07-20T02:07:32;0.00;;;0.00;;
4186;SDS011;2107;52.306;10.484;2023-07-20T02:09:59;0.00;;;0.00;;
4186;SDS011;2107;52.306;10.484;2023-07-20T02:12:25;0.00;;;0.00;;
4186;SDS011;2107;52.306;10.484;2023-07-20T02:14:52;0.00;;;0.00;;
4186;SDS011;2107;52.306;10.484;2023-07-20T02:17:19;0.00;;;0.00;;
4186;SDS011;2107;52.306;10.484;2023-07-20T02:19:46;0.00;;;0.00;;
4186;SDS011;2107;52.306;10.484;2023-07-20T02:22:14;0.00;;;0.00;;
4186;SDS011;2107;52.306;10.484;2023-07-20T02:24:43;0.00;;;0.00;;
4186;SDS011;2107;52.306;10.484;2023-07-20T02:27:10;0.00;;;0.00;;
4186;SDS011;2107;52.306;10.484;2023-07-20T02:29:36;0.00;;;0.00;;
4186;SDS011;2107;52.306;10.484;2023-07-20T02:32:04;0.00;;;0.00;;
4186;SDS011;2107;52.306;10.484;2023-07-20T02:34:31;0.00;;;0.00;;
4186;SDS011;2107;52.306;10.484;2023-07-20T02:36:58;0.00;;;0.00;;
4186;SDS011;2107;52.306;10.484;2023-07-20T02:39:26;0.00;;;0.00;;
4186;SDS011;2107;52.306;10.484;2023-07-20T02:41:54;0.00;;;0.00;;
4186;SDS011;2107;52.306;10.484;2023-07-20T02:44:22;0.00;;;0.00;;
4186;SDS011;2107;52.306;10.484;2023-07-20T02:46:49;0.00;;;0.00;;
4186;SDS011;2107;52.306;10.484;2023-07-20T02:49:15;0.00;;;0.00;;
4186;SDS011;2107;52.306;10.484;2023-07-20T02:51:42;0.00;;;0.00;;
4186;SDS011;2107;52.306;10.484;2023-07-20T02:54:09;0.00;;;0.00;;
4186;SDS011;2107;52.306;10.484;2023-07-20T02:56:36;0.00;;;0.00;;
4186;SDS011;2107;52.306;10.484;2023-07-20T02:59:04;0.00;;;0.00;;
4186;SDS011;2107;52.306;10.484;2023-07-20T03:01:31;0.00;;;0.00;;
4186;SDS011;2107;52.306;10.484;2023-07-20T03:03:58;0.00;;;0.00;;
4186;SDS011;2107;52.306;10.484;2023-07-20T03:06:25;0.00;;;0.00;;
4186;SDS011;2107;52.306;10.484;2023-07-20T03:08:52;0.00;;;0.00;;
4186;SDS011;2107;52.306;10.484;2023-07-20T03:11:19;0.00;;;0.00;;
4186;SDS011;2107;52.306;10.484;2023-07-20T03:13:47;0.00;;;0.00;;
4186;SDS011;2107;52.306;10.484;2023-07-20T03:16:17;0.00;;;0.00;;
4186;SDS011;2107;52.306;10.484;2023-07-20T03:18:45;0.00;;;0.00;;
4186;SDS011;2107;52.306;10.484;2023-07-20T03:21:12;0.00;;;0.00;;
4186;SDS011;2107;52.306;10.484;2023-07-20T03:23:39;0.00;;;0.00;;
4186;SDS011;2107;52.306;10.484;2023-07-20T03:26:06;0.00;;;0.00;;
4186;SDS011;2107;52.306;10.484;2023-07-20T03:28:34;0.00;;;0.00;;
4186;SDS011;2107;52.306;10.484;2023-07-20T03:31:01;0.00;;;0.00;;
4186;SDS011;2107;52.306;10.484;2023-07-20T03:33:29;0.00;;;0.00;;
4186;SDS011;2107;52.306;10.484;2023-07-20T03:35:57;0.00;;;0.00;;
4186;SDS011;2107;52.306;10.484;2023-07-20T03:38:24;0.00;;;0.00;;
4186;SDS011;2107;52.306;10.484;2023-07-20T03:40:52;0.00;;;0.00;;
4186;SDS011;2107;52.306;10.484;2023-07-20T03:43:19;0.00;;;0.00;;
4186;SDS011;2107;52.306;10.484;2023-07-20T03:45:47;0.00;;;0.00;;
4186;SDS011;2107;52.306;10.484;2023-07-20T03:48:14;0.00;;;0.00;;
4186;SDS011;2107;52.306;10.484;2023-07-20T03:50:43;0.10;;;0.10;;
4186;SDS011;2107;52.306;10.484;2023-07-20T03:53:10;0.10;;;0.10;;
4186;SDS011;2107;52.306;10.484;2023-07-20T03:55:37;0.10;;;0.10;;
4186;SDS011;2107;52.306;10.484;2023-07-20T03:58:05;0.10;;;0.10;;
4186;SDS011;2107;52.306;10.484;2023-07-20T04:00:32;0.10;;;0.10;;
4186;SDS011;2107;52.306;10.484;2023-07-20T04:02:59;0.10;;;0.10;;
4186;SDS011;2107;52.306;10.484;2023-07-20T04:05:26;0.10;;;0.10;;
4186;SDS011;2107;52.306;10.484;2023-07-20T04:07:54;0.20;;;0.20;;
4186;SDS011;2107;52.306;10.484;2023-07-20T04:10:21;0.10;;;0.10;;
4186;SDS011;2107;52.306;10.484;2023-07-20T04:12:48;0.10;;;0.10;;
4186;SDS011;2107;52.306;10.484;2023-07-20T04:15:15;0.13;;;0.13;;
4186;SDS011;2107;52.306;10.484;2023-07-20T04:17:41;0.10;;;0.10;;
4186;SDS011;2107;52.306;10.484;2023-07-20T04:20:08;0.20;;;0.20;;
4186;SDS011;2107;52.306;10.484;2023-07-20T04:22:35;0.10;;;0.10;;
4186;SDS011;2107;52.306;10.484;2023-07-20T04:25:04;0.10;;;0.10;;
4186;SDS011;2107;52.306;10.484;2023-07-20T04:27:31;0.10;;;0.10;;
4186;SDS011;2107;52.306;10.484;2023-07-20T04:29:58;0.10;;;0.10;;
4186;SDS011;2107;52.306;10.484;2023-07-20T04:32:25;0.13;;;0.13;;
4186;SDS011;2107;52.306;10.484;2023-07-20T04:34:52;0.10;;;0.10;;
4186;SDS011;2107;52.306;10.484;2023-07-20T04:37:19;0.20;;;0.20;;
4186;SDS011;2107;52.306;10.484;2023-07-20T04:39:46;0.20;;;0.20;;
4186;SDS011;2107;52.306;10.484;2023-07-20T04:42:14;0.10;;;0.10;;
4186;SDS011;2107;52.306;10.484;2023-07-20T04:44:41;0.20;;;0.20;;
4186;SDS011;2107;52.306;10.484;2023-07-20T04:47:08;0.20;;;0.20;;
4186;SDS011;2107;52.306;10.484;2023-07-20T04:49:35;0.43;;;0.43;;
4186;SDS011;2107;52.306;10.484;2023-07-20T04:52:02;0.90;;;0.90;;
4186;SDS011;2107;52.306;10.484;2023-07-20T04:54:29;0.70;;;0.70;;
4186;SDS011;2107;52.306;10.484;2023-07-20T04:56:56;0.80;;;0.80;;
4186;SDS011;2107;52.306;10.484;2023-07-20T04:59:24;0.70;;;0.70;;
4186;SDS011;2107;52.306;10.484;2023-07-20T05:01:51;0.60;;;0.60;;
4186;SDS011;2107;52.306;10.484;2023-07-20T05:04:18;0.60;;;0.60;;
4186;SDS011;2107;52.306;10.484;2023-07-20T05:06:45;0.53;;;0.53;;
4186;SDS011;2107;52.306;10.484;2023-07-20T05:09:12;0.80;;;0.80;;
4186;SDS011;2107;52.306;10.484;2023-07-20T05:11:39;0.60;;;0.60;;
4186;SDS011;2107;52.306;10.484;2023-07-20T05:14:05;0.50;;;0.50;;
4186;SDS011;2107;52.306;10.484;2023-07-20T05:16:34;0.60;;;0.60;;
4186;SDS011;2107;52.306;10.484;2023-07-20T05:19:00;0.40;;;0.40;;
4186;SDS011;2107;52.306;10.484;2023-07-20T05:21:27;0.50;;;0.50;;
4186;SDS011;2107;52.306;10.484;2023-07-20T05:23:54;0.50;;;0.50;;
4186;SDS011;2107;52.306;10.484;2023-07-20T05:26:21;0.60;;;0.60;;
4186;SDS011;2107;52.306;10.484;2023-07-20T05:28:48;0.40;;;0.40;;
4186;SDS011;2107;52.306;10.484;2023-07-20T05:31:15;0.60;;;0.60;;
4186;SDS011;2107;52.306;10.484;2023-07-20T05:33:43;0.70;;;0.70;;
4186;SDS011;2107;52.306;10.484;2023-07-20T05:36:10;0.50;;;0.50;;
4186;SDS011;2107;52.306;10.484;2023-07-20T05:38:37;0.80;;;0.80;;
4186;SDS011;2107;52.306;10.484;2023-07-20T05:41:03;0.67;;;0.67;;
4186;SDS011;2107;52.306;10.484;2023-07-20T05:43:32;0.50;;;0.50;;
4186;SDS011;2107;52.306;10.484;2023-07-20T05:45:59;0.60;;;0.60;;
4186;SDS011;2107;52.306;10.484;2023-07-20T05:48:26;0.60;;;0.60;;
4186;SDS011;2107;52.306;10.484;2023-07-20T05:50:54;0.30;;;0.30;;
4186;SDS011;2107;52.306;10.484;2023-07-20T05:53:21;0.50;;;0.50;;
4186;SDS011;2107;52.306;10.484;2023-07-20T05:55:51;1.00;;;1.00;;
4186;SDS011;2107;52.306;10.484;2023-07-20T05:58:19;0.70;;;0.70;;
4186;SDS011;2107;52.306;10.484;2023-07-20T06:00:47;0.53;;;0.53;;
4186;SDS011;2107;52.306;10.484;2023-07-20T06:03:14;0.40;;;0.40;;
4186;SDS011;2107;52.306;10.484;2023-07-20T06:05:42;0.40;;;0.40;;
4186;SDS011;2107;52.306;10.484;2023-07-20T06:08:10;0.30;;;0.30;;
4186;SDS011;2107;52.306;10.484;2023-07-20T06:10:37;0.30;;;0.30;;
4186;SDS011;2107;52.306;10.484;2023-07-20T06:13:04;0.20;;;0.20;;
4186;SDS011;2107;52.306;10.484;2023-07-20T06:15:31;0.30;;;0.30;;
4186;SDS011;2107;52.306;10.484;2023-07-20T06:18:00;0.20;;;0.20;;
4186;SDS011;2107;52.306;10.484;2023-07-20T06:20:28;0.20;;;0.20;;
4186;SDS011;2107;52.306;10.484;2023-07-20T06:22:55;0.40;;;0.40;;
4186;SDS011;2107;52.306;10.484;2023-07-20T06:25:24;0.30;;;0.30;;
4186;SDS011;2107;52.306;10.484;2023-07-20T06:27:50;0.20;;;0.20;;
4186;SDS011;2107;52.306;10.484;2023-07-20T06:30:17;0.20;;;0.20;;
4186;SDS011;2107;52.306;10.484;2023-07-20T06:32:44;0.20;;;0.20;;
4186;SDS011;2107;52.306;10.484;2023-07-20T06:35:11;0.20;;;0.20;;
4186;SDS011;2107;52.306;10.484;2023-07-20T06:37:38;0.23;;;0.23;;
4186;SDS011;2107;52.306;10.484;2023-07-20T06:40:06;0.20;;;0.20;;
4186;SDS011;2107;52.306;10.484;2023-07-20T06:42:35;0.20;;;0.20;;
4186;SDS011;2107;52.306;10.484;2023-07-20T06:45:02;0.20;;;0.20;;
4186;SDS011;2107;52.306;10.484;2023-07-20T06:47:29;0.20;;;0.20;;
4186;SDS011;2107;52.306;10.484;2023-07-20T06:49:56;0.30;;;0.30;;
4186;SDS011;2107;52.306;10.484;2023-07-20T06:52:23;0.40;;;0.40;;
4186;SDS011;2107;52.306;10.484;2023-07-20T06:54:50;0.30;;;0.30;;
4186;SDS011;2107;52.306;10.484;2023-07-20T06:57:17;0.20;;;0.20;;
4186;SDS011;2107;52.306;10.484;2023-07-20T06:59:46;0.17;;;0.17;;
4186;SDS011;2107;52.306;10.484;2023-07-20T07:02:13;0.10;;;0.10;;
4186;SDS011;2107;52.306;10.484;2023-07-20T07:04:40;0.20;;;0.20;;
4186;SDS011;2107;52.306;10.484;2023-07-20T07:07:07;0.10;;;0.10;;
4186;SDS011;2107;52.306;10.484;2023-07-20T07:09:34;0.10;;;0.10;;
4186;SDS011;2107;52.306;10.484;2023-07-20T07:12:01;0.20;;;0.20;;
4186;SDS011;2107;52.306;10.484;2023-07-20T07:14:28;0.20;;;0.20;;
4186;SDS011;2107;52.306;10.484;2023-07-20T07:16:56;0.20;;;0.20;;
4186;SDS011;2107;52.306;10.484;2023-07-20T07:19:22;0.10;;;0.10;;
4186;SDS011;2107;52.306;10.484;2023-07-20T07:21:49;0.10;;;0.10;;
4186;SDS011;2107;52.306;10.484;2023-07-20T07:24:16;0.10;;;0.10;;
4186;SDS011;2107;52.306;10.484;2023-07-20T07:26:43;0.10;;;0.10;;
4186;SDS011;2107;52.306;10.484;2023-07-20T07:29:10;0.10;;;0.10;;
4186;SDS011;2107;52.306;10.484;2023-07-20T07:31:37;0.10;;;0.10;;
4186;SDS011;2107;52.306;10.484;2023-07-20T07:34:05;0.10;;;0.10;;
4186;SDS011;2107;52.306;10.484;2023-07-20T07:36:32;0.10;;;0.10;;
4186;SDS011;2107;52.306;10.484;2023-07-20T07:38:59;0.10;;;0.10;;
4186;SDS011;2107;52.306;10.484;2023-07-20T07:41:26;0.10;;;0.10;;
4186;SDS011;2107;52.306;10.484;2023-07-20T07:43:53;0.10;;;0.10;;
4186;SDS011;2107;52.306;10.484;2023-07-20T07:46:20;0.10;;;0.10;;
4186;SDS011;2107;52.306;10.484;2023-07-20T07:48:47;0.20;;;0.20;;
4186;SDS011;2107;52.306;10.484;2023-07-20T07:51:15;0.20;;;0.20;;
4186;SDS011;2107;52.306;10.484;2023-07-20T07:53:42;0.20;;;0.20;;
4186;SDS011;2107;52.306;10.484;2023-07-20T07:56:09;0.50;;;0.50;;
4186;SDS011;2107;52.306;10.484;2023-07-20T07:58:36;0.80;;;0.80;;
4186;SDS011;2107;52.306;10.484;2023-07-20T08:01:03;1.17;;;1.17;;
4186;SDS011;2107;52.306;10.484;2023-07-20T08:03:30;1.80;;;1.80;;
4186;SDS011;2107;52.306;10.484;2023-07-20T08:05:57;2.30;;;2.30;;
4186;SDS011;2107;52.306;10.484;2023-07-20T08:08:26;2.60;;;2.60;;
4186;SDS011;2107;52.306;10.484;2023-07-20T08:10:53;2.83;;;2.83;;
4186;SDS011;2107;52.306;10.484;2023-07-20T08:13:21;3.50;;;3.50;;
4186;SDS011;2107;52.306;10.484;2023-07-20T08:15:49;3.43;;;3.43;;
4186;SDS011;2107;52.306;10.484;2023-07-20T08:18:16;2.87;;;2.87;;
4186;SDS011;2107;52.306;10.484;2023-07-20T08:20:43;2.83;;;2.83;;
4186;SDS011;2107;52.306;10.484;2023-07-20T08:23:10;3.10;;;3.10;;
4186;SDS011;2107;52.306;10.484;2023-07-20T08:25:39;2.53;;;2.53;;
4186;SDS011;2107;52.306;10.484;2023-07-20T08:28:08;2.50;;;2.50;;
4186;SDS011;2107;52.306;10.484;2023-07-20T08:30:42;1.83;;;1.83;;
4186;SDS011;2107;52.306;10.484;2023-07-20T08:33:09;1.70;;;1.70;;
4186;SDS011;2107;52.306;10.484;2023-07-20T08:35:37;2.10;;;2.10;;
4186;SDS011;2107;52.306;10.484;2023-07-20T08:38:03;1.60;;;1.60;;
4186;SDS011;2107;52.306;10.484;2023-07-20T08:40:31;1.43;;;1.43;;
4186;SDS011;2107;52.306;10.484;2023-07-20T08:42:59;1.20;;;1.20;;
4186;SDS011;2107;52.306;10.484;2023-07-20T08:45:27;1.10;;;1.10;;
4186;SDS011;2107;52.306;10.484;2023-07-20T08:47:56;1.00;;;1.00;;
4186;SDS011;2107;52.306;10.484;2023-07-20T08:50:25;0.80;;;0.80;;
4186;SDS011;2107;52.306;10.484;2023-07-20T08:52:54;0.60;;;0.60;;
4186;SDS011;2107;52.306;10.484;2023-07-20T08:55:23;0.50;;;0.50;;
4186;SDS011;2107;52.306;10.484;2023-07-20T08:57:50;0.50;;;0.50;;
4186;SDS011;2107;52.306;10.484;2023-07-20T09:00:21;0.60;;;0.60;;
4186;SDS011;2107;52.306;10.484;2023-07-20T09:02:49;0.50;;;0.50;;
4186;SDS011;2107;52.306;10.484;2023-07-20T09:05:17;0.57;;;0.57;;
4186;SDS011;2107;52.306;10.484;2023-07-20T09:07:44;0.50;;;0.50;;
4186;SDS011;2107;52.306;10.484;2023-07-20T09:10:12;0.70;;;0.70;;
4186;SDS011;2107;52.306;10.484;2023-07-20T09:12:39;0.60;;;0.60;;
4186;SDS011;2107;52.306;10.484;2023-07-20T09:15:07;0.57;;;0.57;;
4186;SDS011;2107;52.306;10.484;2023-07-20T09:17:36;0.50;;;0.50;;
4186;SDS011;2107;52.306;10.484;2023-07-20T09:20:04;0.80;;;0.80;;
4186;SDS011;2107;52.306;10.484;2023-07-20T09:22:35;0.80;;;0.80;;
4186;SDS011;2107;52.306;10.484;2023-07-20T09:25:05;0.70;;;0.70;;
4186;SDS011;2107;52.306;10.484;2023-07-20T09:27:35;0.80;;;0.80;;
4186;SDS011;2107;52.306;10.484;2023-07-20T09:30:03;0.90;;;0.90;;
4186;SDS011;2107;52.306;10.484;2023-07-20T09:32:32;0.63;;;0.63;;
4186;SDS011;2107;52.306;10.484;2023-07-20T09:35:12;0.70;;;0.70;;
4186;SDS011;2107;52.306;10.484;2023-07-20T09:37:40;0.70;;;0.70;;
4186;SDS011;2107;52.306;10.484;2023-07-20T09:40:11;0.80;;;0.80;;
4186;SDS011;2107;52.306;10.484;2023-07-20T09:42:41;0.73;;;0.73;;
4186;SDS011;2107;52.306;10.484;2023-07-20T09:45:08;0.90;;;0.90;;
4186;SDS011;2107;52.306;10.484;2023-07-20T09:47:37;0.80;;;0.80;;
4186;SDS011;2107;52.306;10.484;2023-07-20T09:50:06;1.00;;;1.00;;
4186;SDS011;2107;52.306;10.484;2023-07-20T09:52:36;1.00;;;1.00;;
4186;SDS011;2107;52.306;10.484;2023-07-20T09:55:05;0.90;;;0.90;;
4186;SDS011;2107;52.306;10.484;2023-07-20T09:57:33;1.00;;;1.00;;
4186;SDS011;2107;52.306;10.484;2023-07-20T10:00:01;0.90;;;0.90;;
4186;SDS011;2107;52.306;10.484;2023-07-20T10:02:30;0.97;;;0.97;;
4186;SDS011;2107;52.306;10.484;2023-07-20T10:05:01;0.97;;;0.97;;
4186;SDS011;2107;52.306;10.484;2023-07-20T10:07:31;1.00;;;1.00;;
4186;SDS011;2107;52.306;10.484;2023-07-20T10:10:01;1.30;;;1.30;;
4186;SDS011;2107;52.306;10.484;2023-07-20T10:12:30;1.30;;;1.30;;
4186;SDS011;2107;52.306;10.484;2023-07-20T10:14:59;1.50;;;1.50;;
4186;SDS011;2107;52.306;10.484;2023-07-20T10:17:35;1.10;;;1.10;;
4186;SDS011;2107;52.306;10.484;2023-07-20T10:20:06;1.30;;;1.30;;
4186;SDS011;2107;52.306;10.484;2023-07-20T10:22:36;0.80;;;0.80;;
4186;SDS011;2107;52.306;10.484;2023-07-20T10:25:04;1.23;;;1.23;;
4186;SDS011;2107;52.306;10.484;2023-07-20T10:27:33;1.10;;;1.10;;
4186;SDS011;2107;52.306;10.484;2023-07-20T10:30:00;1.10;;;1.10;;
4186;SDS011;2107;52.306;10.484;2023-07-20T10:32:29;1.20;;;1.20;;
4186;SDS011;2107;52.306;10.484;2023-07-20T10:34:56;1.00;;;1.00;;
4186;SDS011;2107;52.306;10.484;2023-07-20T10:37:46;1.00;;;1.00;;
4186;SDS011;2107;52.306;10.484;2023-07-20T10:40:24;1.00;;;1.00;;
4186;SDS011;2107;52.306;10.484;2023-07-20T10:42:55;0.87;;;0.87;;
4186;SDS011;2107;52.306;10.484;2023-07-20T10:45:32;1.30;;;1.30;;
4186;SDS011;2107;52.306;10.484;2023-07-20T10:48:02;1.30;;;1.30;;
4186;SDS011;2107;52.306;10.484;2023-07-20T10:50:30;0.90;;;0.90;;
4186;SDS011;2107;52.306;10.484;2023-07-20T10:53:05;1.00;;;1.00;;
4186;SDS011;2107;52.306;10.484;2023-07-20T10:55:38;1.00;;;1.00;;
4186;SDS011;2107;52.306;10.484;2023-07-20T10:58:08;0.90;;;0.90;;
4186;SDS011;2107;52.306;10.484;2023-07-20T11:00:37;1.00;;;1.00;;
4186;SDS011;2107;52.306;10.484;2023-07-20T11:03:04;1.10;;;1.10;;
4186;SDS011;2107;52.306;10.484;2023-07-20T11:05:37;1.17;;;1.17;;
4186;SDS011;2107;52.306;10.484;2023-07-20T11:08:09;1.10;;;1.10;;
4186;SDS011;2107;52.306;10.484;2023-07-20T11:10:37;1.10;;;1.10;;
4186;SDS011;2107;52.306;10.484;2023-07-20T11:13:18;0.87;;;0.87;;
4186;SDS011;2107;52.306;10.484;2023-07-20T11:15:46;1.10;;;1.10;;
4186;SDS011;2107;52.306;10.484;2023-07-20T11:18:14;1.00;;;1.00;;
4186;SDS011;2107;52.306;10.484;2023-07-20T11:20:41;0.83;;;0.83;;
4186;SDS011;2107;52.306;10.484;2023-07-20T11:23:10;0.80;;;0.80;;
4186;SDS011;2107;52.306;10.484;2023-07-20T11:25:37;0.57;;;0.57;;
4186;SDS011;2107;52.306;10.484;2023-07-20T11:28:08;0.70;;;0.70;;
4186;SDS011;2107;52.306;10.484;2023-07-20T11:30:36;0.70;;;0.70;;
4186;SDS011;2107;52.306;10.484;2023-07-20T11:33:03;0.50;;;0.50;;
4186;SDS011;2107;52.306;10.484;2023-07-20T11:35:30;0.70;;;0.70;;
4186;SDS011;2107;52.306;10.484;2023-07-20T11:38:01;0.60;;;0.60;;
4186;SDS011;2107;52.306;10.484;2023-07-20T11:40:30;0.87;;;0.87;;
4186;SDS011;2107;52.306;10.484;2023-07-20T11:42:56;0.60;;;0.60;;
4186;SDS011;2107;52.306;10.484;2023-07-20T11:45:23;1.10;;;1.10;;
4186;SDS011;2107;52.306;10.484;2023-07-20T11:47:52;1.00;;;1.00;;
4186;SDS011;2107;52.306;10.484;2023-07-20T11:50:19;0.90;;;0.90;;
4186;SDS011;2107;52.306;10.484;2023-07-20T11:52:46;1.20;;;1.20;;
4186;SDS011;2107;52.306;10.484;2023-07-20T11:55:13;1.00;;;1.00;;
4186;SDS011;2107;52.306;10.484;2023-07-20T11:57:41;1.20;;;1.20;;
4186;SDS011;2107;52.306;10.484;2023-07-20T12:00:27;1.80;;;1.80;;
4186;SDS011;2107;52.306;10.484;2023-07-20T12:02:54;1.50;;;1.50;;
4186;SDS011;2107;52.306;10.484;2023-07-20T12:05:22;1.10;;;1.10;;
4186;SDS011;2107;52.306;10.484;2023-07-20T12:07:51;1.00;;;1.00;;
4186;SDS011;2107;52.306;10.484;2023-07-20T12:10:23;1.20;;;1.20;;
4186;SDS011;2107;52.306;10.484;2023-07-20T12:12:52;0.77;;;0.77;;
4186;SDS011;2107;52.306;10.484;2023-07-20T12:15:20;0.80;;;0.80;;
4186;SDS011;2107;52.306;10.484;2023-07-20T12:17:49;0.70;;;0.70;;
4186;SDS011;2107;52.306;10.484;2023-07-20T12:20:27;0.90;;;0.90;;
4186;SDS011;2107;52.306;10.484;2023-07-20T12:22:59;0.70;;;0.70;;
4186;SDS011;2107;52.306;10.484;2023-07-20T12:25:33;0.80;;;0.80;;
4186;SDS011;2107;52.306;10.484;2023-07-20T12:28:05;0.90;;;0.90;;
4186;SDS011;2107;52.306;10.484;2023-07-20T12:30:33;0.50;;;0.50;;
4186;SDS011;2107;52.306;10.484;2023-07-20T12:32:59;0.77;;;0.77;;
4186;SDS011;2107;52.306;10.484;2023-07-20T12:35:27;0.60;;;0.60;;
4186;SDS011;2107;52.306;10.484;2023-07-20T12:37:55;0.70;;;0.70;;
4186;SDS011;2107;52.306;10.484;2023-07-20T12:40:22;0.80;;;0.80;;
4186;SDS011;2107;52.306;10.484;2023-07-20T12:42:49;0.97;;;0.97;;
4186;SDS011;2107;52.306;10.484;2023-07-20T12:45:17;0.80;;;0.80;;
4186;SDS011;2107;52.306;10.484;2023-07-20T12:47:44;0.70;;;0.70;;
4186;SDS011;2107;52.306;10.484;2023-07-20T12:50:11;0.70;;;0.70;;
4186;SDS011;2107;52.306;10.484;2023-07-20T12:52:38;0.90;;;0.90;;
4186;SDS011;2107;52.306;10.484;2023-07-20T12:55:07;0.90;;;0.90;;
4186;SDS011;2107;52.306;10.484;2023-07-20T12:57:35;1.10;;;1.10;;
4186;SDS011;2107;52.306;10.484;2023-07-20T13:00:02;0.90;;;0.90;;
4186;SDS011;2107;52.306;10.484;2023-07-20T13:02:31;0.90;;;0.90;;
4186;SDS011;2107;52.306;10.484;2023-07-20T13:04:59;0.80;;;0.80;;
4186;SDS011;2107;52.306;10.484;2023-07-20T13:07:29;1.10;;;1.10;;
4186;SDS011;2107;52.306;10.484;2023-07-20T13:09:57;1.40;;;1.40;;
4186;SDS011;2107;52.306;10.484;2023-07-20T13:12:25;1.20;;;1.20;;
4186;SDS011;2107;52.306;10.484;2023-07-20T13:14:52;1.23;;;1.23;;
4186;SDS011;2107;52.306;10.484;2023-07-20T13:17:19;1.20;;;1.20;;
4186;SDS011;2107;52.306;10.484;2023-07-20T13:19:47;1.10;;;1.10;;
4186;SDS011;2107;52.306;10.484;2023-07-20T13:22:14;1.40;;;1.40;;
4186;SDS011;2107;52.306;10.484;2023-07-20T13:24:41;1.60;;;1.60;;
4186;SDS011;2107;52.306;10.484;2023-07-20T13:27:10;1.20;;;1.20;;
4186;SDS011;2107;52.306;10.484;2023-07-20T13:29:37;0.80;;;0.80;;
4186;SDS011;2107;52.306;10.484;2023-07-20T13:32:04;0.90;;;0.90;;
4186;SDS011;2107;52.306;10.484;2023-07-20T13:34:31;0.80;;;0.80;;
4186;SDS011;2107;52.306;10.484;2023-07-20T13:37:00;0.90;;;0.90;;
4186;SDS011;2107;52.306;10.484;2023-07-20T13:39:27;0.90;;;0.90;;
4186;SDS011;2107;52.306;10.484;2023-07-20T13:41:54;1.10;;;1.10;;
4186;SDS011;2107;52.306;10.484;2023-07-20T13:44:21;1.20;;;1.20;;
4186;SDS011;2107;52.306;10.484;2023-07-20T13:46:48;1.43;;;1.43;;
4186;SDS011;2107;52.306;10.484;2023-07-20T13:49:15;1.37;;;1.37;;
4186;SDS011;2107;52.306;10.484;2023-07-20T13:51:42;1.53;;;1.53;;
4186;SDS011;2107;52.306;10.484;2023-07-20T13:54:10;1.50;;;1.50;;
4186;SDS011;2107;52.306;10.484;2023-07-20T13:56:37;1.40;;;1.40;;
4186;SDS011;2107;52.306;10.484;2023-07-20T13:59:04;1.30;;;1.30;;
4186;SDS011;2107;52.306;10.484;2023-07-20T14:01:31;1.20;;;1.20;;
4186;SDS011;2107;52.306;10.484;2023-07-20T14:03:59;1.20;;;1.20;;
4186;SDS011;2107;52.306;10.484;2023-07-20T14:06:27;1.40;;;1.40;;
4186;SDS011;2107;52.306;10.484;2023-07-20T14:08:55;1.63;;;1.63;;
4186;SDS011;2107;52.306;10.484;2023-07-20T14:11:23;1.50;;;1.50;;
4186;SDS011;2107;52.306;10.484;2023-07-20T14:13:50;1.30;;;1.30;;
4186;SDS011;2107;52.306;10.484;2023-07-20T14:16:18;1.50;;;1.50;;
4186;SDS011;2107;52.306;10.484;2023-07-20T14:18:44;1.63;;;1.63;;
4186;SDS011;2107;52.306;10.484;2023-07-20T14:21:13;1.47;;;1.47;;
4186;SDS011;2107;52.306;10.484;2023-07-20T14:23:40;1.50;;;1.50;;
4186;SDS011;2107;52.306;10.484;2023-07-20T14:26:07;2.10;;;2.10;;
4186;SDS011;2107;52.306;10.484;2023-07-20T14:28:35;1.30;;;1.30;;
4186;SDS011;2107;52.306;10.484;2023-07-20T14:31:02;1.90;;;1.90;;
4186;SDS011;2107;52.306;10.484;2023-07-20T14:33:30;2.07;;;2.07;;
4186;SDS011;2107;52.306;10.484;2023-07-20T14:35:57;1.60;;;1.60;;
4186;SDS011;2107;52.306;10.484;2023-07-20T14:38:24;1.40;;;1.40;;
4186;SDS011;2107;52.306;10.484;2023-07-20T14:40:51;1.57;;;1.57;;
4186;SDS011;2107;52.306;10.484;2023-07-20T14:43:18;1.53;;;1.53;;
4186;SDS011;2107;52.306;10.484;2023-07-20T14:45:46;1.40;;;1.40;;
4186;SDS011;2107;52.306;10.484;2023-07-20T14:48:13;1.40;;;1.40;;
4186;SDS011;2107;52.306;10.484;2023-07-20T14:50:39;1.40;;;1.40;;
4186;SDS011;2107;52.306;10.484;2023-07-20T14:53:07;1.80;;;1.80;;
4186;SDS011;2107;52.306;10.484;2023-07-20T14:55:34;1.60;;;1.60;;
4186;SDS011;2107;52.306;10.484;2023-07-20T14:58:01;1.53;;;1.53;;
4186;SDS011;2107;52.306;10.484;2023-07-20T15:00:28;1.30;;;1.30;;
4186;SDS011;2107;52.306;10.484;2023-07-20T15:02:56;1.37;;;1.37;;
4186;SDS011;2107;52.306;10.484;2023-07-20T15:05:23;1.83;;;1.83;;
4186;SDS011;2107;52.306;10.484;2023-07-20T15:07:51;1.60;;;1.60;;
4186;SDS011;2107;52.306;10.484;2023-07-20T15:10:19;1.50;;;1.50;;
4186;SDS011;2107;52.306;10.484;2023-07-20T15:12:47;1.50;;;1.50;;